Time;durP1;ratioP1;P1;durP2;ratioP2;P2;SDS_P1;SDS_P2;PMS_P1;PMS_P2;Temp;Humidity;BMP_temperature;BMP_pressure;BME280_temperature;BME280_humidity;BME280_pressure;Samples;Min_cycle;Max_cycle;Signal;HPM_P1;HPM_P2
2021/08/19 00:00:54;;;;;;;29.08;13.48;;;;;;;;;;5138379;27;20118;-75
2021/08/19 00:03:20;;;;;;;18.70;10.27;;;;;;;;;;5138569;27;20410;-79
2021/08/19 00:05:45;;;;;;;18.98;12.70;;;;;;;;;;5138402;27;20020;-75
2021/08/19 00:08:11;;;;;;;16.70;13.27;;;;;;;;;;5138221;27;20015;-75
2021/08/19 00:10:37;;;;;;;17.48;13.07;;;;;;;;;;5136644;27;20077;-83
2021/08/19 00:13:03;;;;;;;17.92;13.70;;;;;;;;;;5138167;27;20015;-78
2021/08/19 00:15:28;;;;;;;18.77;12.77;;;;;;;;;;5137855;27;20076;-76
2021/08/19 00:17:54;;;;;;;16.88;13.05;;;;;;;;;;5137706;27;20109;-81
2021/08/19 00:20:20;;;;;;;22.92;15.68;;;;;;;;;;5137721;27;20015;-80
2021/08/19 00:22:46;;;;;;;18.20;12.43;;;;;;;;;;5137799;27;20466;-81
2021/08/19 00:25:12;;;;;;;17.65;12.20;;;;;;;;;;5137997;27;20110;-80
2021/08/19 00:27:38;;;;;;;16.70;11.35;;;;;;;;;;5137420;27;20067;-76
2021/08/19 00:30:05;;;;;;;19.42;13.63;;;;;;;;;;5137702;27;20031;-75
2021/08/19 00:32:31;;;;;;;15.93;12.55;;;;;;;;;;5137479;27;20046;-77
2021/08/19 00:34:56;;;;;;;20.27;11.15;;;;;;;;;;5137471;27;20043;-75
2021/08/19 00:37:22;;;;;;;20.45;13.75;;;;;;;;;;5137525;27;20023;-76
2021/08/19 00:39:48;;;;;;;19.10;11.80;;;;;;;;;;5137469;27;20019;-77
2021/08/19 00:42:20;;;;;;;15.05;11.70;;;;;;;;;;5136052;27;20469;-77
2021/08/19 00:44:48;;;;;;;13.18;10.18;;;;;;;;;;5137322;27;20469;-78
2021/08/19 00:47:14;;;;;;;17.40;10.85;;;;;;;;;;5137296;27;20024;-81
2021/08/19 00:49:41;;;;;;;17.60;11.90;;;;;;;;;;5137054;27;20019;-79
2021/08/19 00:52:07;;;;;;;17.33;11.23;;;;;;;;;;5137161;27;20106;-75
2021/08/19 00:54:35;;;;;;;15.82;12.73;;;;;;;;;;5137381;27;20030;-76
2021/08/19 00:57:03;;;;;;;18.05;12.73;;;;;;;;;;5135696;27;20027;-81
2021/08/19 00:59:40;;;;;;;15.57;11.38;;;;;;;;;;5135774;27;20031;-79
2021/08/19 01:02:09;;;;;;;16.20;11.00;;;;;;;;;;5137091;27;20026;-78
2021/08/19 01:04:40;;;;;;;18.17;12.57;;;;;;;;;;5135711;27;20481;-81
2021/08/19 01:07:06;;;;;;;19.55;12.13;;;;;;;;;;5137055;27;20026;-80
2021/08/19 01:09:32;;;;;;;14.32;11.43;;;;;;;;;;5136861;27;20102;-76
2021/08/19 01:11:58;;;;;;;15.50;11.15;;;;;;;;;;5137110;27;20019;-79
2021/08/19 01:14:24;;;;;;;20.27;12.88;;;;;;;;;;5136713;27;20023;-79
2021/08/19 01:16:50;;;;;;;17.25;12.35;;;;;;;;;;5136679;27;20493;-79
2021/08/19 01:19:19;;;;;;;17.25;12.00;;;;;;;;;;5136773;27;20026;-82
2021/08/19 01:21:46;;;;;;;16.13;11.63;;;;;;;;;;5136669;27;20030;-77
2021/08/19 01:24:12;;;;;;;18.05;11.70;;;;;;;;;;5136735;27;20019;-75
2021/08/19 01:26:39;;;;;;;14.73;11.05;;;;;;;;;;5138025;27;20023;-76
2021/08/19 01:29:04;;;;;;;13.20;9.57;;;;;;;;;;5145144;27;20043;-75
2021/08/19 01:31:32;;;;;;;14.10;10.48;;;;;;;;;;5140578;27;20030;-75
2021/08/19 01:33:58;;;;;;;12.45;8.82;;;;;;;;;;5139110;27;20103;-76
2021/08/19 01:36:24;;;;;;;12.57;8.93;;;;;;;;;;5136634;27;20035;-79
2021/08/19 01:38:51;;;;;;;11.40;7.65;;;;;;;;;;5136598;27;20031;-76
2021/08/19 01:41:17;;;;;;;15.45;9.43;;;;;;;;;;5136266;27;20015;-79
2021/08/19 01:43:47;;;;;;;10.65;8.32;;;;;;;;;;5136192;27;20027;-78
2021/08/19 01:46:18;;;;;;;9.38;8.18;;;;;;;;;;5134849;27;20034;-78
2021/08/19 01:48:45;;;;;;;10.65;5.00;;;;;;;;;;5136543;27;20513;-76
2021/08/19 01:51:16;;;;;;;8.73;6.95;;;;;;;;;;5136326;27;20023;-81
2021/08/19 01:53:42;;;;;;;8.02;6.10;;;;;;;;;;5136020;27;20028;-75
2021/08/19 01:56:08;;;;;;;9.68;7.55;;;;;;;;;;5135864;27;20031;-78
2021/08/19 01:58:34;;;;;;;10.65;5.30;;;;;;;;;;5135777;27;20431;-78
2021/08/19 02:01:00;;;;;;;8.23;6.53;;;;;;;;;;5135175;27;20026;-79
2021/08/19 02:03:25;;;;;;;10.32;6.13;;;;;;;;;;5135805;27;20023;-76
2021/08/19 02:05:52;;;;;;;8.40;6.95;;;;;;;;;;5135801;27;20105;-80
2021/08/19 02:08:18;;;;;;;10.23;9.13;;;;;;;;;;5135703;27;20095;-78
2021/08/19 02:10:44;;;;;;;10.05;6.20;;;;;;;;;;5135704;27;20031;-76
2021/08/19 02:13:11;;;;;;;5.95;3.85;;;;;;;;;;5135607;27;20367;-79
2021/08/19 02:15:37;;;;;;;11.27;7.22;;;;;;;;;;5135609;27;20068;-78
2021/08/19 02:18:03;;;;;;;7.35;4.80;;;;;;;;;;5135392;27;20419;-76
2021/08/19 02:20:28;;;;;;;11.70;6.43;;;;;;;;;;5135479;27;20072;-75
2021/08/19 02:23:04;;;;;;;8.80;5.45;;;;;;;;;;5135581;27;20023;-76
2021/08/19 02:25:30;;;;;;;9.07;6.35;;;;;;;;;;5135377;27;20027;-75
2021/08/19 02:27:56;;;;;;;8.32;6.25;;;;;;;;;;5135192;27;20039;-79
2021/08/19 02:30:22;;;;;;;8.48;5.68;;;;;;;;;;5134028;27;20106;-76
2021/08/19 02:32:57;;;;;;;10.30;6.35;;;;;;;;;;5135319;27;20103;-76
2021/08/19 02:35:25;;;;;;;9.38;6.95;;;;;;;;;;5135348;27;20019;-80
2021/08/19 02:37:52;;;;;;;9.13;6.65;;;;;;;;;;5135096;27;20038;-79
2021/08/19 02:40:17;;;;;;;7.65;4.13;;;;;;;;;;5135177;27;20048;-76
2021/08/19 02:42:43;;;;;;;9.45;6.30;;;;;;;;;;5133801;27;20455;-82
2021/08/19 02:45:09;;;;;;;10.13;5.93;;;;;;;;;;5135171;27;20374;-75
2021/08/19 02:47:35;;;;;;;11.52;5.70;;;;;;;;;;5134911;27;20464;-79
2021/08/19 02:50:00;;;;;;;10.05;7.55;;;;;;;;;;5135196;27;20027;-76
2021/08/19 02:52:26;;;;;;;13.27;10.68;;;;;;;;;;5135008;27;20019;-80
2021/08/19 02:54:52;;;;;;;10.27;6.72;;;;;;;;;;5133598;27;20023;-75
2021/08/19 02:57:17;;;;;;;9.40;7.65;;;;;;;;;;5134002;27;20027;-76
2021/08/19 02:59:43;;;;;;;12.15;9.65;;;;;;;;;;5135145;27;20046;-75
2021/08/19 03:02:09;;;;;;;8.50;7.07;;;;;;;;;;5134901;27;20055;-79
2021/08/19 03:04:34;;;;;;;10.85;8.73;;;;;;;;;;5135073;27;20049;-75
2021/08/19 03:07:00;;;;;;;10.07;7.15;;;;;;;;;;5135085;27;20492;-75
2021/08/19 03:09:26;;;;;;;11.38;8.18;;;;;;;;;;5135263;27;20553;-78
2021/08/19 03:11:51;;;;;;;11.95;8.38;;;;;;;;;;5137007;27;20106;-75
2021/08/19 03:14:17;;;;;;;10.30;8.63;;;;;;;;;;5135911;27;20122;-74
2021/08/19 03:16:43;;;;;;;8.63;5.85;;;;;;;;;;5136067;27;20023;-75
2021/08/19 03:19:09;;;;;;;10.40;8.27;;;;;;;;;;5134667;27;20580;-73
2021/08/19 03:21:36;;;;;;;9.70;7.93;;;;;;;;;;5134443;27;20019;-74
2021/08/19 03:24:03;;;;;;;10.93;7.13;;;;;;;;;;5134809;27;20072;-77
2021/08/19 03:26:31;;;;;;;8.20;6.30;;;;;;;;;;5133080;28;20393;-80
2021/08/19 03:28:56;;;;;;;8.70;7.05;;;;;;;;;;5134703;27;20092;-74
2021/08/19 03:31:22;;;;;;;8.98;7.22;;;;;;;;;;5133125;28;20027;-82
2021/08/19 03:33:47;;;;;;;10.63;7.72;;;;;;;;;;5134587;27;20023;-74
2021/08/19 03:36:13;;;;;;;8.73;6.10;;;;;;;;;;5134439;27;20031;-78
2021/08/19 03:38:40;;;;;;;7.40;6.18;;;;;;;;;;5134326;27;20542;-78
2021/08/19 03:41:05;;;;;;;8.60;6.80;;;;;;;;;;5134357;27;20019;-73
2021/08/19 03:43:31;;;;;;;7.40;6.03;;;;;;;;;;5134449;27;20455;-75
2021/08/19 03:45:57;;;;;;;8.45;7.55;;;;;;;;;;5132975;28;20084;-73
2021/08/19 03:48:23;;;;;;;8.77;6.18;;;;;;;;;;5134210;27;20080;-75
2021/08/19 03:50:49;;;;;;;8.65;4.10;;;;;;;;;;5134310;27;20408;-77
2021/08/19 03:53:15;;;;;;;7.03;6.28;;;;;;;;;;5134361;27;20072;-75
2021/08/19 03:55:40;;;;;;;8.40;6.30;;;;;;;;;;5136776;27;20019;-73
2021/08/19 03:58:06;;;;;;;7.03;6.05;;;;;;;;;;5134304;27;20046;-75
2021/08/19 04:00:32;;;;;;;7.38;5.50;;;;;;;;;;5134201;27;20020;-74
2021/08/19 04:02:57;;;;;;;7.47;6.47;;;;;;;;;;5134324;27;20023;-74
2021/08/19 04:05:23;;;;;;;7.85;5.47;;;;;;;;;;5134326;27;20027;-72
2021/08/19 04:07:48;;;;;;;8.45;6.68;;;;;;;;;;5134505;27;20023;-79
2021/08/19 04:10:14;;;;;;;8.38;6.55;;;;;;;;;;5134613;27;20104;-72
2021/08/19 04:12:41;;;;;;;7.95;5.10;;;;;;;;;;5134328;27;20058;-73
2021/08/19 04:15:07;;;;;;;7.13;6.20;;;;;;;;;;5134141;27;20031;-73
2021/08/19 04:17:33;;;;;;;9.27;6.40;;;;;;;;;;5134136;27;20106;-78
2021/08/19 04:19:59;;;;;;;7.22;5.97;;;;;;;;;;5134074;27;20106;-78
2021/08/19 04:22:25;;;;;;;7.22;6.47;;;;;;;;;;5134018;27;20035;-74
2021/08/19 04:24:50;;;;;;;8.00;3.33;;;;;;;;;;5135437;27;20023;-79
2021/08/19 04:27:16;;;;;;;8.32;6.88;;;;;;;;;;5136355;27;20047;-78
2021/08/19 04:29:42;;;;;;;6.93;6.18;;;;;;;;;;5140338;27;20016;-75
2021/08/19 04:32:07;;;;;;;8.60;5.80;;;;;;;;;;5140953;27;20102;-73
2021/08/19 04:34:33;;;;;;;9.13;5.57;;;;;;;;;;5141858;27;20098;-78
2021/08/19 04:36:59;;;;;;;6.07;2.78;;;;;;;;;;5139743;27;20031;-74
2021/08/19 04:39:27;;;;;;;6.50;2.22;;;;;;;;;;5140543;27;20022;-73
2021/08/19 04:41:53;;;;;;;8.15;5.93;;;;;;;;;;5137609;27;20016;-75
2021/08/19 04:44:19;;;;;;;8.68;3.25;;;;;;;;;;5137379;27;20069;-75
2021/08/19 04:46:45;;;;;;;5.30;2.03;;;;;;;;;;5137630;27;20080;-73
2021/08/19 04:49:11;;;;;;;6.32;5.22;;;;;;;;;;5136092;27;20035;-74
2021/08/19 04:51:37;;;;;;;8.07;6.25;;;;;;;;;;5137214;27;20019;-73
2021/08/19 04:54:07;;;;;;;6.78;6.05;;;;;;;;;;5137402;27;20052;-73
2021/08/19 04:56:38;;;;;;;7.47;3.10;;;;;;;;;;5135992;27;20362;-73
2021/08/19 04:59:06;;;;;;;4.65;4.00;;;;;;;;;;5137314;27;20029;-73
2021/08/19 05:01:32;;;;;;;6.97;5.25;;;;;;;;;;5136994;27;20019;-72
2021/08/19 05:04:01;;;;;;;6.03;4.57;;;;;;;;;;5136917;27;20098;-73
2021/08/19 05:06:28;;;;;;;6.45;5.43;;;;;;;;;;5135561;27;20023;-72
2021/08/19 05:08:54;;;;;;;7.15;5.00;;;;;;;;;;5136924;27;20076;-72
2021/08/19 05:11:21;;;;;;;6.60;5.40;;;;;;;;;;5136754;27;20031;-72
2021/08/19 05:13:47;;;;;;;5.80;5.15;;;;;;;;;;5135427;27;20127;-73
2021/08/19 05:16:13;;;;;;;6.13;4.38;;;;;;;;;;5136711;27;20106;-72
2021/08/19 05:18:40;;;;;;;9.30;4.15;;;;;;;;;;5136664;27;20458;-71
2021/08/19 05:21:06;;;;;;;4.40;3.25;;;;;;;;;;5136637;27;20470;-72
2021/08/19 05:23:32;;;;;;;3.97;2.30;;;;;;;;;;5136503;27;20363;-73
2021/08/19 05:25:58;;;;;;;4.47;3.28;;;;;;;;;;5136510;27;20030;-73
2021/08/19 05:28:23;;;;;;;6.25;4.63;;;;;;;;;;5136337;27;20120;-73
2021/08/19 05:30:49;;;;;;;5.38;4.47;;;;;;;;;;5136429;27;20023;-73
2021/08/19 05:33:15;;;;;;;6.80;4.72;;;;;;;;;;5136400;27;20107;-74
2021/08/19 05:35:40;;;;;;;4.90;3.53;;;;;;;;;;5136343;27;20084;-72
2021/08/19 05:38:06;;;;;;;4.38;3.13;;;;;;;;;;5136230;27;20466;-72
2021/08/19 05:40:31;;;;;;;5.30;3.10;;;;;;;;;;5136220;27;20023;-73
2021/08/19 05:42:57;;;;;;;7.88;3.47;;;;;;;;;;5136085;27;20058;-75
2021/08/19 05:45:23;;;;;;;5.35;4.25;;;;;;;;;;5136159;27;20019;-73
2021/08/19 05:47:48;;;;;;;6.03;5.30;;;;;;;;;;5136222;27;20020;-73
2021/08/19 05:50:14;;;;;;;4.32;3.83;;;;;;;;;;5136052;27;20087;-73
2021/08/19 05:52:40;;;;;;;4.65;3.63;;;;;;;;;;5136167;27;20035;-74
2021/08/19 05:55:06;;;;;;;6.38;4.05;;;;;;;;;;5135938;27;20488;-72
2021/08/19 05:57:32;;;;;;;5.63;4.78;;;;;;;;;;5134798;27;20454;-72
2021/08/19 05:59:58;;;;;;;6.93;3.72;;;;;;;;;;5135864;27;20026;-72
2021/08/19 06:02:23;;;;;;;6.68;5.07;;;;;;;;;;5136064;27;20038;-72
2021/08/19 06:04:49;;;;;;;4.50;3.08;;;;;;;;;;5135749;27;20468;-72
2021/08/19 06:07:14;;;;;;;6.78;5.88;;;;;;;;;;5135926;27;20029;-72
2021/08/19 06:09:40;;;;;;;5.07;4.57;;;;;;;;;;5134389;27;20023;-72
2021/08/19 06:12:06;;;;;;;5.85;4.50;;;;;;;;;;5135645;27;20479;-72
2021/08/19 06:14:32;;;;;;;4.82;4.32;;;;;;;;;;5135597;27;20051;-72
2021/08/19 06:16:59;;;;;;;6.65;4.03;;;;;;;;;;5135511;27;20061;-72
2021/08/19 06:19:25;;;;;;;7.30;4.47;;;;;;;;;;5135760;27;20101;-72
2021/08/19 06:21:50;;;;;;;7.70;5.93;;;;;;;;;;5135447;27;20073;-72
2021/08/19 06:24:16;;;;;;;4.60;2.08;;;;;;;;;;5135303;27;20355;-72
2021/08/19 06:26:42;;;;;;;6.13;5.50;;;;;;;;;;5135371;27;20025;-72
2021/08/19 06:29:07;;;;;;;6.03;5.43;;;;;;;;;;5133789;27;20054;-72
2021/08/19 06:31:33;;;;;;;5.72;4.30;;;;;;;;;;5135157;27;20072;-72
2021/08/19 06:33:59;;;;;;;8.27;3.10;;;;;;;;;;5135176;27;20434;-75
2021/08/19 06:36:25;;;;;;;11.85;3.80;;;;;;;;;;5135185;27;20030;-74
2021/08/19 06:38:54;;;;;;;7.45;5.15;;;;;;;;;;5135531;27;20031;-73
2021/08/19 06:41:20;;;;;;;;;;;;;;;;;;5135656;27;20027;-73
2021/08/19 06:43:52;;;;;;;5.65;3.90;;;;;;;;;;5137606;27;20354;-74
2021/08/19 06:46:23;;;;;;;7.75;4.55;;;;;;;;;;5138263;27;20168;-74
2021/08/19 06:48:50;;;;;;;5.07;2.72;;;;;;;;;;5136696;27;20027;-74
2021/08/19 06:51:15;;;;;;;5.50;4.10;;;;;;;;;;5136866;27;20479;-73
2021/08/19 06:53:41;;;;;;;5.72;5.22;;;;;;;;;;5136866;27;20034;-75
2021/08/19 06:56:06;;;;;;;5.15;3.85;;;;;;;;;;5135007;27;20065;-74
2021/08/19 06:58:32;;;;;;;5.93;4.70;;;;;;;;;;5134785;27;20496;-74
2021/08/19 07:00:58;;;;;;;5.55;3.15;;;;;;;;;;5116504;27;20035;-74
2021/08/19 07:03:24;;;;;;;4.35;3.72;;;;;;;;;;5138938;27;20024;-74
2021/08/19 07:05:50;;;;;;;5.13;3.83;;;;;;;;;;5136810;27;20069;-74
2021/08/19 07:08:16;;;;;;;6.20;3.15;;;;;;;;;;5136203;27;20023;-74
2021/08/19 07:10:45;;;;;;;3.78;3.08;;;;;;;;;;5135809;27;20054;-73
2021/08/19 07:13:11;;;;;;;6.55;2.85;;;;;;;;;;5135884;27;20023;-74
2021/08/19 07:15:37;;;;;;;3.97;3.55;;;;;;;;;;5134617;27;20035;-74
2021/08/19 07:18:03;;;;;;;3.17;0.85;;;;;;;;;;5135730;27;20624;-75
2021/08/19 07:20:30;;;;;;;3.50;1.83;;;;;;;;;;5137628;27;20367;-73
2021/08/19 07:22:56;;;;;;;7.55;2.92;;;;;;;;;;5135717;28;20037;-73
2021/08/19 07:25:22;;;;;;;2.45;2.22;;;;;;;;;;5135905;27;20106;-74
2021/08/19 07:27:48;;;;;;;4.28;3.50;;;;;;;;;;5135333;27;20039;-74
2021/08/19 07:30:14;;;;;;;4.85;3.38;;;;;;;;;;5136544;27;20110;-75
2021/08/19 07:32:40;;;;;;;3.45;3.15;;;;;;;;;;5135247;27;20474;-73
2021/08/19 07:35:06;;;;;;;3.08;2.75;;;;;;;;;;5135488;27;20114;-74
2021/08/19 07:37:32;;;;;;;3.45;2.80;;;;;;;;;;5135415;27;20035;-74
2021/08/19 07:39:57;;;;;;;1.83;0.60;;;;;;;;;;5133653;28;20035;-74
2021/08/19 07:42:23;;;;;;;3.38;2.22;;;;;;;;;;5135028;27;20019;-73
2021/08/19 07:44:49;;;;;;;3.38;3.08;;;;;;;;;;5135236;27;20023;-73
2021/08/19 07:47:15;;;;;;;8.10;2.25;;;;;;;;;;5133580;28;20409;-72
2021/08/19 07:49:40;;;;;;;3.70;2.40;;;;;;;;;;5135192;27;20015;-73
2021/08/19 07:52:06;;;;;;;2.83;2.28;;;;;;;;;;5133863;28;20035;-73
2021/08/19 07:54:34;;;;;;;3.95;2.55;;;;;;;;;;5135099;27;20035;-73
2021/08/19 07:56:59;;;;;;;3.45;1.90;;;;;;;;;;5134286;27;20031;-73
2021/08/19 07:59:26;;;;;;;4.57;2.70;;;;;;;;;;5136806;27;20031;-73
2021/08/19 08:01:51;;;;;;;2.92;2.30;;;;;;;;;;5138295;27;20043;-74
2021/08/19 08:04:17;;;;;;;3.30;1.92;;;;;;;;;;5141101;27;20024;-74
2021/08/19 08:06:44;;;;;;;2.83;1.30;;;;;;;;;;5140542;27;20369;-73
2021/08/19 08:09:10;;;;;;;2.15;1.35;;;;;;;;;;5138524;27;20409;-74
2021/08/19 08:11:36;;;;;;;2.85;1.70;;;;;;;;;;5139054;27;20027;-74
2021/08/19 08:14:02;;;;;;;3.08;2.15;;;;;;;;;;5137546;27;20027;-74
2021/08/19 08:16:28;;;;;;;4.07;3.75;;;;;;;;;;5138708;27;20050;-74
2021/08/19 08:18:55;;;;;;;4.60;3.03;;;;;;;;;;5138415;27;20061;-74
2021/08/19 08:21:20;;;;;;;3.80;1.83;;;;;;;;;;5137446;27;20023;-73
2021/08/19 08:23:48;;;;;;;4.47;2.20;;;;;;;;;;5138459;27;20098;-73
2021/08/19 08:26:14;;;;;;;2.85;2.58;;;;;;;;;;5138341;27;20064;-73
2021/08/19 08:28:40;;;;;;;3.00;2.00;;;;;;;;;;5138144;27;20043;-73
2021/08/19 08:31:08;;;;;;;1.38;0.38;;;;;;;;;;5138857;27;20562;-74
2021/08/19 08:33:35;;;;;;;2.90;1.17;;;;;;;;;;5138053;27;20394;-74
2021/08/19 08:36:01;;;;;;;2.40;1.73;;;;;;;;;;5137774;27;20472;-75
2021/08/19 08:38:30;;;;;;;2.33;1.90;;;;;;;;;;5138092;27;20027;-74
2021/08/19 08:40:56;;;;;;;2.60;0.57;;;;;;;;;;5138348;27;20027;-76
2021/08/19 08:43:23;;;;;;;2.17;0.40;;;;;;;;;;5137585;27;20094;-75
2021/08/19 08:45:51;;;;;;;2.30;1.58;;;;;;;;;;5138246;27;20114;-75
2021/08/19 08:48:23;;;;;;;2.92;2.20;;;;;;;;;;5137251;27;20053;-74
2021/08/19 08:50:51;;;;;;;2.58;2.20;;;;;;;;;;5137265;27;20032;-74
2021/08/19 08:53:17;;;;;;;2.85;2.65;;;;;;;;;;5137216;27;20053;-74
2021/08/19 08:55:44;;;;;;;3.45;2.50;;;;;;;;;;5137189;27;20027;-74
2021/08/19 08:58:10;;;;;;;2.42;1.98;;;;;;;;;;5137022;27;20023;-74
2021/08/19 09:00:39;;;;;;;2.67;0.57;;;;;;;;;;5137132;27;20031;-74
2021/08/19 09:03:07;;;;;;;2.42;1.90;;;;;;;;;;5135672;27;20091;-74
2021/08/19 09:05:44;;;;;;;3.28;2.05;;;;;;;;;;5142754;27;20107;-74
2021/08/19 09:08:15;;;;;;;2.20;0.65;;;;;;;;;;5142313;27;20400;-74
2021/08/19 09:10:41;;;;;;;1.90;0.57;;;;;;;;;;5139800;27;20027;-72
2021/08/19 09:13:13;;;;;;;2.95;0.68;;;;;;;;;;5143361;27;20027;-73
2021/08/19 09:15:38;;;;;;;3.55;1.05;;;;;;;;;;5141413;27;20107;-74
2021/08/19 09:18:04;;;;;;;4.20;0.55;;;;;;;;;;5152793;27;20125;-74
2021/08/19 09:20:41;;;;;;;2.75;0.60;;;;;;;;;;5137256;27;20029;-74
2021/08/19 09:23:13;;;;;;;1.30;0.47;;;;;;;;;;5135959;27;20027;-74
2021/08/19 09:25:44;;;;;;;4.00;0.65;;;;;;;;;;5135984;27;20060;-74
2021/08/19 09:28:15;;;;;;;2.05;0.70;;;;;;;;;;5135880;27;20497;-73
2021/08/19 09:30:47;;;;;;;2.97;0.40;;;;;;;;;;5135662;27;20121;-74
2021/08/19 09:33:14;;;;;;;2.78;1.60;;;;;;;;;;5136966;27;20055;-73
2021/08/19 09:35:40;;;;;;;2.05;1.48;;;;;;;;;;5136798;27;20427;-74
2021/08/19 09:38:15;;;;;;;1.95;0.68;;;;;;;;;;5136253;27;20023;-74
2021/08/19 09:40:41;;;;;;;4.80;0.75;;;;;;;;;;5136346;27;20076;-78
2021/08/19 09:43:07;;;;;;;3.47;2.28;;;;;;;;;;5136279;27;20023;-74
2021/08/19 09:45:44;;;;;;;2.33;1.17;;;;;;;;;;5136218;27;20023;-74
2021/08/19 09:48:12;;;;;;;4.03;1.40;;;;;;;;;;5136229;27;20426;-74
2021/08/19 09:50:39;;;;;;;5.68;1.05;;;;;;;;;;5136362;27;20019;-74
2021/08/19 09:53:22;;;;;;;4.35;2.25;;;;;;;;;;5134716;27;20019;-74
2021/08/19 09:55:48;;;;;;;3.80;1.60;;;;;;;;;;5135913;27;20381;-73
2021/08/19 09:58:29;;;;;;;2.95;0.95;;;;;;;;;;5135866;27;20042;-73
2021/08/19 10:00:55;;;;;;;4.93;0.73;;;;;;;;;;5136224;27;20023;-72
2021/08/19 10:03:22;;;;;;;6.20;3.63;;;;;;;;;;5135886;27;20046;-73
2021/08/19 10:05:49;;;;;;;3.30;2.65;;;;;;;;;;5134899;27;20518;-75
2021/08/19 10:08:14;;;;;;;3.40;1.02;;;;;;;;;;5135772;27;20508;-74
2021/08/19 10:10:44;;;;;;;3.75;2.63;;;;;;;;;;5135813;27;20019;-73
2021/08/19 10:13:12;;;;;;;3.47;0.77;;;;;;;;;;5135618;27;20482;-74
2021/08/19 10:15:40;;;;;;;2.67;1.60;;;;;;;;;;5135608;27;20023;-74
2021/08/19 10:18:07;;;;;;;4.15;0.80;;;;;;;;;;5135673;27;20027;-74
2021/08/19 10:20:37;;;;;;;3.15;1.13;;;;;;;;;;5134314;27;20051;-74
2021/08/19 10:23:04;;;;;;;4.43;1.58;;;;;;;;;;5133652;27;20429;-73
2021/08/19 10:25:30;;;;;;;2.50;0.73;;;;;;;;;;5135399;27;20015;-78
2021/08/19 10:28:18;;;;;;;3.33;0.70;;;;;;;;;;5135387;27;20131;-74
2021/08/19 10:30:48;;;;;;;3.60;2.50;;;;;;;;;;5134175;27;20031;-74
2021/08/19 10:33:43;;;;;;;3.08;0.77;;;;;;;;;;5135338;27;20027;-74
2021/08/19 10:36:15;;;;;;;2.83;0.60;;;;;;;;;;5125161;27;20031;-75
2021/08/19 10:38:44;;;;;;;2.88;0.80;;;;;;;;;;5135639;27;20023;-75
2021/08/19 10:41:31;;;;;;;4.63;0.98;;;;;;;;;;5135132;27;20076;-75
2021/08/19 10:44:10;;;;;;;5.03;3.00;;;;;;;;;;5135025;27;20027;-74
2021/08/19 10:46:43;;;;;;;2.83;0.85;;;;;;;;;;5134818;27;20421;-75
2021/08/19 10:49:31;;;;;;;5.22;0.75;;;;;;;;;;5135016;27;20027;-75
2021/08/19 10:52:23;;;;;;;2.95;0.90;;;;;;;;;;5134881;27;20059;-74
2021/08/19 10:54:50;;;;;;;3.35;2.40;;;;;;;;;;5129138;27;20490;-74
2021/08/19 10:57:25;;;;;;;3.88;0.95;;;;;;;;;;5134850;27;20038;-75
2021/08/19 11:00:11;;;;;;;4.85;1.02;;;;;;;;;;5133810;27;20027;-75
2021/08/19 11:02:56;;;;;;;4.43;1.85;;;;;;;;;;5135864;27;20059;-74
2021/08/19 11:05:28;;;;;;;5.03;3.47;;;;;;;;;;5134297;27;20051;-72
2021/08/19 11:07:56;;;;;;;2.95;1.00;;;;;;;;;;5135216;27;20023;-74
2021/08/19 11:10:27;;;;;;;3.35;0.73;;;;;;;;;;5134876;27;20026;-73
2021/08/19 11:13:15;;;;;;;5.45;1.05;;;;;;;;;;5134769;27;20019;-73
2021/08/19 11:15:49;;;;;;;3.92;3.08;;;;;;;;;;5134608;27;20110;-73
2021/08/19 11:18:25;;;;;;;5.00;3.03;;;;;;;;;;5134444;27;20023;-74
2021/08/19 11:20:51;;;;;;;5.20;1.48;;;;;;;;;;5134509;27;20102;-74
2021/08/19 11:23:18;;;;;;;4.95;3.72;;;;;;;;;;5134519;27;20062;-75
2021/08/19 11:25:46;;;;;;;5.45;1.50;;;;;;;;;;5133245;28;20023;-74
2021/08/19 11:28:16;;;;;;;6.07;3.70;;;;;;;;;;5134385;27;20168;-74
2021/08/19 11:30:44;;;;;;;6.03;1.20;;;;;;;;;;5134751;27;20435;-73
2021/08/19 11:33:22;;;;;;;3.13;0.98;;;;;;;;;;5134841;27;20019;-74
2021/08/19 11:35:51;;;;;;;4.60;2.38;;;;;;;;;;5138828;27;20106;-74
2021/08/19 11:38:22;;;;;;;5.82;2.25;;;;;;;;;;5138578;27;20112;-74
2021/08/19 11:40:51;;;;;;;3.60;1.17;;;;;;;;;;5138580;27;20067;-74
2021/08/19 11:43:32;;;;;;;4.55;3.42;;;;;;;;;;5138601;27;20029;-74
2021/08/19 11:46:10;;;;;;;7.93;1.90;;;;;;;;;;5138447;27;20523;-74
2021/08/19 11:48:37;;;;;;;3.50;1.25;;;;;;;;;;5138552;27;20415;-74
2021/08/19 11:51:05;;;;;;;3.28;1.23;;;;;;;;;;5138521;27;20098;-72
2021/08/19 11:53:31;;;;;;;4.57;3.38;;;;;;;;;;5138453;27;20016;-73
2021/08/19 11:56:09;;;;;;;2.55;0.82;;;;;;;;;;5138231;27;20109;-74
2021/08/19 11:58:35;;;;;;;3.10;1.33;;;;;;;;;;5136989;27;20043;-72
2021/08/19 12:01:05;;;;;;;4.32;1.90;;;;;;;;;;5138221;27;20459;-74
2021/08/19 12:03:31;;;;;;;5.45;1.50;;;;;;;;;;5138163;27;20030;-74
2021/08/19 12:05:59;;;;;;;4.00;1.45;;;;;;;;;;5138087;27;20030;-73
2021/08/19 12:08:27;;;;;;;17.95;3.45;;;;;;;;;;5138177;27;20019;-73
2021/08/19 12:10:54;;;;;;;4.78;3.30;;;;;;;;;;5136897;27;20031;-72
2021/08/19 12:13:20;;;;;;;4.15;3.03;;;;;;;;;;5137887;27;20048;-72
2021/08/19 12:15:46;;;;;;;7.07;3.90;;;;;;;;;;5138138;27;20103;-73
2021/08/19 12:18:12;;;;;;;5.32;1.23;;;;;;;;;;5137772;27;20114;-73
2021/08/19 12:20:38;;;;;;;5.70;1.35;;;;;;;;;;5137817;27;20446;-74
2021/08/19 12:23:22;;;;;;;5.57;1.73;;;;;;;;;;5137762;27;20047;-75
2021/08/19 12:25:48;;;;;;;4.15;1.67;;;;;;;;;;5137846;27;20030;-74
2021/08/19 12:28:16;;;;;;;2.53;1.10;;;;;;;;;;5137738;27;20490;-74
2021/08/19 12:30:59;;;;;;;3.72;1.63;;;;;;;;;;5137674;27;20019;-73
2021/08/19 12:33:33;;;;;;;3.05;1.08;;;;;;;;;;5137567;27;20051;-73
2021/08/19 12:36:14;;;;;;;5.35;2.88;;;;;;;;;;5136329;27;20019;-74
2021/08/19 12:38:41;;;;;;;6.15;4.10;;;;;;;;;;5137333;27;20067;-74
2021/08/19 12:41:16;;;;;;;5.15;2.05;;;;;;;;;;5137515;27;20019;-73
2021/08/19 12:43:43;;;;;;;5.55;3.78;;;;;;;;;;5137496;27;20023;-75
2021/08/19 12:46:10;;;;;;;6.65;1.83;;;;;;;;;;5136652;27;20068;-76
2021/08/19 12:48:37;;;;;;;5.00;1.27;;;;;;;;;;5137292;27;20015;-74
2021/08/19 12:51:27;;;;;;;5.70;3.78;;;;;;;;;;5137255;27;20088;-75
2021/08/19 12:54:08;;;;;;;3.97;1.17;;;;;;;;;;5137291;27;20023;-75
2021/08/19 12:56:37;;;;;;;4.60;1.17;;;;;;;;;;5137152;27;20107;-75
2021/08/19 12:59:04;;;;;;;6.05;4.30;;;;;;;;;;5137032;27;20076;-73
2021/08/19 13:01:31;;;;;;;7.03;2.53;;;;;;;;;;5135767;27;20025;-73
2021/08/19 13:03:59;;;;;;;7.43;2.00;;;;;;;;;;5135762;27;20030;-73
2021/08/19 13:06:27;;;;;;;6.25;2.08;;;;;;;;;;5135841;27;20055;-74
2021/08/19 13:08:52;;;;;;;6.32;3.40;;;;;;;;;;5135641;27;20026;-74
2021/08/19 13:11:18;;;;;;;4.75;2.53;;;;;;;;;;5136805;27;20377;-73
2021/08/19 13:13:44;;;;;;;6.45;2.70;;;;;;;;;;5117973;27;20445;-74
2021/08/19 13:16:09;;;;;;;4.65;1.85;;;;;;;;;;5136715;27;20076;-74
2021/08/19 13:18:35;;;;;;;5.47;4.50;;;;;;;;;;5136622;27;20023;-74
2021/08/19 13:21:03;;;;;;;5.13;2.42;;;;;;;;;;5136619;27;20428;-74
2021/08/19 13:23:29;;;;;;;3.92;1.42;;;;;;;;;;5136639;27;20088;-74
2021/08/19 13:25:56;;;;;;;5.50;2.10;;;;;;;;;;5136552;27;20027;-73
2021/08/19 13:28:21;;;;;;;4.93;1.17;;;;;;;;;;5136311;27;20498;-73
2021/08/19 13:30:47;;;;;;;6.30;2.15;;;;;;;;;;5136688;27;20106;-73
2021/08/19 13:33:13;;;;;;;8.85;2.50;;;;;;;;;;5135342;27;20011;-73
2021/08/19 13:35:39;;;;;;;8.00;2.67;;;;;;;;;;5136355;27;20034;-73
2021/08/19 13:38:06;;;;;;;5.65;3.65;;;;;;;;;;5136174;27;20499;-73
2021/08/19 13:40:31;;;;;;;4.45;1.50;;;;;;;;;;5136432;27;20096;-73
2021/08/19 13:42:58;;;;;;;6.40;1.85;;;;;;;;;;5136502;27;20051;-73
2021/08/19 13:45:24;;;;;;;4.38;2.22;;;;;;;;;;5136181;27;20084;-73
2021/08/19 13:47:49;;;;;;;6.10;3.35;;;;;;;;;;5136306;27;20404;-72
2021/08/19 13:50:15;;;;;;;5.10;1.75;;;;;;;;;;5136107;27;20470;-73
2021/08/19 13:52:41;;;;;;;4.05;2.13;;;;;;;;;;5135997;27;20470;-73
2021/08/19 13:55:07;;;;;;;6.00;4.38;;;;;;;;;;5135989;27;20470;-72
2021/08/19 13:57:33;;;;;;;5.40;2.17;;;;;;;;;;5134796;27;20080;-73
2021/08/19 13:59:58;;;;;;;5.65;2.30;;;;;;;;;;5135892;27;20023;-72
2021/08/19 14:02:24;;;;;;;4.72;2.13;;;;;;;;;;5135849;27;20080;-73
2021/08/19 14:04:50;;;;;;;7.63;2.90;;;;;;;;;;5135822;27;20023;-72
2021/08/19 14:07:15;;;;;;;5.32;2.20;;;;;;;;;;5135995;27;20486;-73
2021/08/19 14:09:41;;;;;;;14.40;4.63;;;;;;;;;;5135787;27;20367;-72
2021/08/19 14:12:07;;;;;;;7.90;3.22;;;;;;;;;;5134324;27;20038;-71
2021/08/19 14:14:33;;;;;;;6.72;4.13;;;;;;;;;;5135848;27;20023;-72
2021/08/19 14:16:59;;;;;;;6.00;2.13;;;;;;;;;;5135732;27;20027;-71
2021/08/19 14:19:24;;;;;;;4.65;3.20;;;;;;;;;;5134205;27;20056;-71
2021/08/19 14:21:50;;;;;;;6.68;2.33;;;;;;;;;;5134162;27;20485;-72
2021/08/19 14:24:17;;;;;;;6.72;2.10;;;;;;;;;;5135456;27;20102;-72
2021/08/19 14:26:44;;;;;;;6.55;1.77;;;;;;;;;;5135689;27;20019;-72
2021/08/19 14:29:10;;;;;;;5.43;2.30;;;;;;;;;;5135170;27;20075;-72
2021/08/19 14:31:36;;;;;;;12.20;3.22;;;;;;;;;;5135512;27;20433;-72
2021/08/19 14:34:01;;;;;;;9.13;2.47;;;;;;;;;;5135377;27;20047;-72
2021/08/19 14:36:27;;;;;;;5.20;2.38;;;;;;;;;;5133825;27;20019;-73
2021/08/19 14:38:53;;;;;;;8.13;3.95;;;;;;;;;;5135085;27;20030;-71
2021/08/19 14:41:18;;;;;;;6.00;2.13;;;;;;;;;;5135129;27;20467;-72